sensor_id;sensor_type;location;lat;lon;timestamp;P1;durP1;ratioP1;P2;durP2;ratioP2
703;SDS011;335;48.694;9.120;2022-09-12T00:00:08;10.63;;;9.83;;
703;SDS011;335;48.694;9.120;2022-09-12T00:02:34;11.97;;;10.97;;
703;SDS011;335;48.694;9.120;2022-09-12T00:05:00;11.00;;;9.83;;
703;SDS011;335;48.694;9.120;2022-09-12T00:07:25;9.37;;;8.57;;
703;SDS011;335;48.694;9.120;2022-09-12T00:09:50;10.70;;;9.87;;
703;SDS011;335;48.694;9.120;2022-09-12T00:12:15;10.37;;;9.43;;
703;SDS011;335;48.694;9.120;2022-09-12T00:14:41;10.50;;;9.60;;
703;SDS011;335;48.694;9.120;2022-09-12T00:17:06;10.30;;;9.40;;
703;SDS011;335;48.694;9.120;2022-09-12T00:19:31;10.33;;;9.53;;
703;SDS011;335;48.694;9.120;2022-09-12T00:21:57;11.77;;;10.87;;
703;SDS011;335;48.694;9.120;2022-09-12T00:24:22;10.10;;;9.30;;
703;SDS011;335;48.694;9.120;2022-09-12T00:26:48;10.43;;;9.47;;
703;SDS011;335;48.694;9.120;2022-09-12T00:29:14;10.10;;;8.90;;
703;SDS011;335;48.694;9.120;2022-09-12T00:31:40;10.43;;;9.53;;
703;SDS011;335;48.694;9.120;2022-09-12T00:34:06;9.90;;;9.00;;
703;SDS011;335;48.694;9.120;2022-09-12T00:36:31;10.30;;;9.43;;
703;SDS011;335;48.694;9.120;2022-09-12T00:38:56;11.23;;;10.23;;
703;SDS011;335;48.694;9.120;2022-09-12T00:41:23;10.67;;;9.67;;
703;SDS011;335;48.694;9.120;2022-09-12T00:43:54;11.10;;;10.20;;
703;SDS011;335;48.694;9.120;2022-09-12T00:46:43;10.30;;;9.40;;
703;SDS011;335;48.694;9.120;2022-09-12T00:49:11;10.70;;;9.80;;
703;SDS011;335;48.694;9.120;2022-09-12T00:51:38;10.13;;;9.33;;
703;SDS011;335;48.694;9.120;2022-09-12T00:54:11;11.73;;;10.73;;
703;SDS011;335;48.694;9.120;2022-09-12T00:56:38;11.40;;;10.50;;
703;SDS011;335;48.694;9.120;2022-09-12T00:59:06;10.67;;;9.67;;
703;SDS011;335;48.694;9.120;2022-09-12T01:01:36;10.73;;;9.60;;
703;SDS011;335;48.694;9.120;2022-09-12T01:04:02;11.30;;;10.20;;
703;SDS011;335;48.694;9.120;2022-09-12T01:06:29;10.23;;;9.43;;
703;SDS011;335;48.694;9.120;2022-09-12T01:08:57;13.57;;;12.37;;
703;SDS011;335;48.694;9.120;2022-09-12T01:11:23;12.30;;;11.10;;
703;SDS011;335;48.694;9.120;2022-09-12T01:13:49;10.73;;;9.80;;
703;SDS011;335;48.694;9.120;2022-09-12T01:16:14;10.60;;;9.67;;
703;SDS011;335;48.694;9.120;2022-09-12T01:19:02;12.40;;;9.30;;
703;SDS011;335;48.694;9.120;2022-09-12T01:21:53;9.90;;;9.10;;
703;SDS011;335;48.694;9.120;2022-09-12T01:24:33;11.00;;;10.07;;
703;SDS011;335;48.694;9.120;2022-09-12T01:33:28;10.23;;;9.33;;
703;SDS011;335;48.694;9.120;2022-09-12T01:44:08;11.37;;;10.33;;
703;SDS011;335;48.694;9.120;2022-09-12T01:46:57;10.70;;;9.70;;
703;SDS011;335;48.694;9.120;2022-09-12T01:52:35;9.40;;;8.47;;
703;SDS011;335;48.694;9.120;2022-09-12T01:57:53;10.57;;;9.67;;
703;SDS011;335;48.694;9.120;2022-09-12T02:00:22;9.57;;;8.60;;
703;SDS011;335;48.694;9.120;2022-09-12T02:02:55;10.57;;;9.63;;
703;SDS011;335;48.694;9.120;2022-09-12T02:05:32;10.73;;;9.90;;
703;SDS011;335;48.694;9.120;2022-09-12T02:10:37;10.63;;;9.83;;
703;SDS011;335;48.694;9.120;2022-09-12T02:13:10;10.27;;;9.47;;
703;SDS011;335;48.694;9.120;2022-09-12T02:15:46;10.70;;;9.70;;
703;SDS011;335;48.694;9.120;2022-09-12T02:18:15;11.20;;;10.40;;
703;SDS011;335;48.694;9.120;2022-09-12T02:20:42;11.37;;;10.17;;
703;SDS011;335;48.694;9.120;2022-09-12T02:23:10;11.50;;;10.30;;
703;SDS011;335;48.694;9.120;2022-09-12T02:25:39;11.53;;;10.53;;
703;SDS011;335;48.694;9.120;2022-09-12T02:28:14;10.67;;;9.77;;
703;SDS011;335;48.694;9.120;2022-09-12T02:30:57;11.90;;;10.80;;
703;SDS011;335;48.694;9.120;2022-09-12T02:33:30;9.63;;;8.83;;
703;SDS011;335;48.694;9.120;2022-09-12T02:36:09;9.20;;;8.40;;
703;SDS011;335;48.694;9.120;2022-09-12T02:38:48;10.00;;;9.00;;
703;SDS011;335;48.694;9.120;2022-09-12T02:41:14;11.97;;;10.97;;
703;SDS011;335;48.694;9.120;2022-09-12T02:43:42;9.67;;;8.77;;
703;SDS011;335;48.694;9.120;2022-09-12T02:46:08;11.30;;;10.30;;
703;SDS011;335;48.694;9.120;2022-09-12T02:48:46;12.27;;;11.13;;
703;SDS011;335;48.694;9.120;2022-09-12T02:51:11;11.17;;;10.10;;
703;SDS011;335;48.694;9.120;2022-09-12T02:53:37;10.23;;;9.40;;
703;SDS011;335;48.694;9.120;2022-09-12T02:56:04;13.30;;;10.17;;
703;SDS011;335;48.694;9.120;2022-09-12T02:58:32;11.63;;;10.53;;
703;SDS011;335;48.694;9.120;2022-09-12T03:03:47;10.30;;;9.50;;
703;SDS011;335;48.694;9.120;2022-09-12T03:06:17;11.03;;;10.03;;
703;SDS011;335;48.694;9.120;2022-09-12T03:20:06;10.93;;;9.93;;
703;SDS011;335;48.694;9.120;2022-09-12T03:25:25;10.03;;;9.13;;
703;SDS011;335;48.694;9.120;2022-09-12T03:30:25;11.00;;;9.97;;
703;SDS011;335;48.694;9.120;2022-09-12T03:32:52;10.57;;;9.53;;
703;SDS011;335;48.694;9.120;2022-09-12T03:35:20;11.00;;;9.90;;
703;SDS011;335;48.694;9.120;2022-09-12T03:37:46;10.43;;;9.43;;
703;SDS011;335;48.694;9.120;2022-09-12T03:40:13;9.77;;;8.97;;
703;SDS011;335;48.694;9.120;2022-09-12T03:42:39;10.47;;;9.40;;
703;SDS011;335;48.694;9.120;2022-09-12T03:45:05;10.00;;;9.17;;
703;SDS011;335;48.694;9.120;2022-09-12T03:47:32;10.40;;;9.40;;
703;SDS011;335;48.694;9.120;2022-09-12T03:49:57;10.10;;;9.20;;
703;SDS011;335;48.694;9.120;2022-09-12T03:52:22;9.63;;;8.83;;
703;SDS011;335;48.694;9.120;2022-09-12T03:54:48;9.40;;;8.60;;
703;SDS011;335;48.694;9.120;2022-09-12T03:57:13;10.53;;;9.63;;
703;SDS011;335;48.694;9.120;2022-09-12T03:59:39;10.20;;;9.30;;
703;SDS011;335;48.694;9.120;2022-09-12T04:02:04;11.00;;;9.90;;
703;SDS011;335;48.694;9.120;2022-09-12T04:04:30;10.70;;;9.80;;
703;SDS011;335;48.694;9.120;2022-09-12T04:06:55;10.17;;;9.27;;
703;SDS011;335;48.694;9.120;2022-09-12T04:09:20;11.80;;;10.70;;
703;SDS011;335;48.694;9.120;2022-09-12T04:11:46;12.33;;;11.23;;
703;SDS011;335;48.694;9.120;2022-09-12T04:14:11;11.57;;;10.37;;
703;SDS011;335;48.694;9.120;2022-09-12T04:16:36;11.20;;;10.10;;
703;SDS011;335;48.694;9.120;2022-09-12T04:19:02;10.70;;;9.80;;
703;SDS011;335;48.694;9.120;2022-09-12T04:21:27;11.10;;;10.10;;
703;SDS011;335;48.694;9.120;2022-09-12T04:23:52;12.47;;;11.27;;
703;SDS011;335;48.694;9.120;2022-09-12T04:26:18;10.60;;;9.70;;
703;SDS011;335;48.694;9.120;2022-09-12T04:28:44;10.43;;;9.30;;
703;SDS011;335;48.694;9.120;2022-09-12T04:31:15;13.97;;;12.57;;
703;SDS011;335;48.694;9.120;2022-09-12T04:33:42;10.90;;;9.90;;
703;SDS011;335;48.694;9.120;2022-09-12T04:36:17;11.60;;;10.70;;
703;SDS011;335;48.694;9.120;2022-09-12T04:38:43;10.20;;;9.40;;
703;SDS011;335;48.694;9.120;2022-09-12T04:41:20;10.97;;;9.90;;
703;SDS011;335;48.694;9.120;2022-09-12T04:43:51;10.17;;;9.27;;
703;SDS011;335;48.694;9.120;2022-09-12T04:46:17;11.80;;;10.73;;
703;SDS011;335;48.694;9.120;2022-09-12T04:48:46;10.57;;;9.50;;
703;SDS011;335;48.694;9.120;2022-09-12T04:51:16;10.73;;;9.83;;
703;SDS011;335;48.694;9.120;2022-09-12T04:53:47;10.37;;;9.43;;
703;SDS011;335;48.694;9.120;2022-09-12T04:56:13;10.20;;;9.30;;
703;SDS011;335;48.694;9.120;2022-09-12T04:58:39;9.80;;;8.90;;
703;SDS011;335;48.694;9.120;2022-09-12T05:01:11;13.27;;;9.13;;
703;SDS011;335;48.694;9.120;2022-09-12T05:03:38;8.70;;;8.00;;
703;SDS011;335;48.694;9.120;2022-09-12T05:06:05;10.37;;;9.40;;
703;SDS011;335;48.694;9.120;2022-09-12T05:08:32;11.40;;;10.30;;
703;SDS011;335;48.694;9.120;2022-09-12T05:11:02;11.03;;;10.03;;
703;SDS011;335;48.694;9.120;2022-09-12T05:13:29;10.83;;;9.80;;
703;SDS011;335;48.694;9.120;2022-09-12T05:15:58;8.43;;;7.73;;
703;SDS011;335;48.694;9.120;2022-09-12T05:18:25;8.60;;;7.90;;
703;SDS011;335;48.694;9.120;2022-09-12T05:20:51;7.33;;;6.83;;
703;SDS011;335;48.694;9.120;2022-09-12T05:23:17;8.93;;;7.90;;
703;SDS011;335;48.694;9.120;2022-09-12T05:25:49;9.67;;;8.67;;
703;SDS011;335;48.694;9.120;2022-09-12T05:28:18;8.83;;;8.17;;
703;SDS011;335;48.694;9.120;2022-09-12T05:30:45;10.33;;;9.53;;
703;SDS011;335;48.694;9.120;2022-09-12T05:33:10;10.37;;;9.10;;
703;SDS011;335;48.694;9.120;2022-09-12T05:35:36;10.80;;;9.90;;
703;SDS011;335;48.694;9.120;2022-09-12T05:38:04;10.20;;;9.30;;
703;SDS011;335;48.694;9.120;2022-09-12T05:40:30;18.53;;;15.23;;
703;SDS011;335;48.694;9.120;2022-09-12T05:42:56;37.33;;;25.77;;
703;SDS011;335;48.694;9.120;2022-09-12T05:45:22;29.13;;;22.50;;
703;SDS011;335;48.694;9.120;2022-09-12T05:47:47;23.87;;;19.20;;
703;SDS011;335;48.694;9.120;2022-09-12T05:50:13;17.27;;;15.47;;
703;SDS011;335;48.694;9.120;2022-09-12T05:52:38;17.23;;;15.53;;
703;SDS011;335;48.694;9.120;2022-09-12T05:55:04;17.23;;;15.20;;
703;SDS011;335;48.694;9.120;2022-09-12T05:57:30;14.30;;;11.03;;
703;SDS011;335;48.694;9.120;2022-09-12T05:59:56;10.20;;;9.30;;
703;SDS011;335;48.694;9.120;2022-09-12T06:02:21;11.03;;;9.97;;
703;SDS011;335;48.694;9.120;2022-09-12T06:04:46;11.20;;;10.10;;
703;SDS011;335;48.694;9.120;2022-09-12T06:07:11;9.37;;;8.67;;
703;SDS011;335;48.694;9.120;2022-09-12T06:09:37;9.90;;;9.10;;
703;SDS011;335;48.694;9.120;2022-09-12T06:12:02;10.77;;;9.87;;
703;SDS011;335;48.694;9.120;2022-09-12T06:14:28;11.33;;;10.40;;
703;SDS011;335;48.694;9.120;2022-09-12T06:16:53;13.93;;;11.07;;
703;SDS011;335;48.694;9.120;2022-09-12T06:19:19;12.30;;;11.20;;
703;SDS011;335;48.694;9.120;2022-09-12T06:21:46;12.17;;;11.10;;
703;SDS011;335;48.694;9.120;2022-09-12T06:24:15;10.93;;;10.03;;
703;SDS011;335;48.694;9.120;2022-09-12T06:26:41;10.70;;;9.80;;
703;SDS011;335;48.694;9.120;2022-09-12T06:29:08;10.50;;;9.70;;
703;SDS011;335;48.694;9.120;2022-09-12T06:31:35;10.30;;;9.50;;
703;SDS011;335;48.694;9.120;2022-09-12T06:34:03;9.50;;;8.60;;
703;SDS011;335;48.694;9.120;2022-09-12T06:36:30;10.07;;;9.20;;
703;SDS011;335;48.694;9.120;2022-09-12T06:39:14;9.53;;;8.70;;
703;SDS011;335;48.694;9.120;2022-09-12T06:41:41;11.23;;;10.23;;
703;SDS011;335;48.694;9.120;2022-09-12T06:44:08;10.93;;;9.90;;
703;SDS011;335;48.694;9.120;2022-09-12T06:46:36;9.57;;;8.67;;
703;SDS011;335;48.694;9.120;2022-09-12T06:49:01;9.37;;;8.50;;
703;SDS011;335;48.694;9.120;2022-09-12T06:51:27;9.43;;;8.73;;
703;SDS011;335;48.694;9.120;2022-09-12T06:53:53;8.50;;;7.80;;
703;SDS011;335;48.694;9.120;2022-09-12T06:56:20;9.50;;;8.20;;
703;SDS011;335;48.694;9.120;2022-09-12T06:58:48;8.60;;;7.90;;
703;SDS011;335;48.694;9.120;2022-09-12T07:01:15;9.63;;;8.80;;
703;SDS011;335;48.694;9.120;2022-09-12T07:03:49;9.27;;;8.47;;
703;SDS011;335;48.694;9.120;2022-09-12T07:06:17;9.27;;;8.37;;
703;SDS011;335;48.694;9.120;2022-09-12T07:08:44;8.90;;;8.20;;
703;SDS011;335;48.694;9.120;2022-09-12T07:11:17;9.20;;;8.27;;
703;SDS011;335;48.694;9.120;2022-09-12T07:13:44;9.37;;;8.57;;
703;SDS011;335;48.694;9.120;2022-09-12T07:16:11;9.73;;;8.83;;
703;SDS011;335;48.694;9.120;2022-09-12T07:18:37;10.37;;;9.57;;
703;SDS011;335;48.694;9.120;2022-09-12T07:21:04;9.17;;;8.50;;
703;SDS011;335;48.694;9.120;2022-09-12T07:23:31;8.90;;;8.20;;
703;SDS011;335;48.694;9.120;2022-09-12T07:25:57;8.50;;;7.90;;
703;SDS011;335;48.694;9.120;2022-09-12T07:28:24;10.00;;;9.30;;
703;SDS011;335;48.694;9.120;2022-09-12T07:30:53;8.67;;;8.07;;
703;SDS011;335;48.694;9.120;2022-09-12T07:33:19;9.23;;;8.33;;
703;SDS011;335;48.694;9.120;2022-09-12T07:35:45;7.90;;;7.30;;
703;SDS011;335;48.694;9.120;2022-09-12T07:38:10;9.10;;;8.40;;
703;SDS011;335;48.694;9.120;2022-09-12T07:40:35;7.63;;;7.07;;
703;SDS011;335;48.694;9.120;2022-09-12T07:43:01;7.43;;;6.83;;
703;SDS011;335;48.694;9.120;2022-09-12T07:45:26;7.83;;;7.23;;
703;SDS011;335;48.694;9.120;2022-09-12T07:47:52;7.20;;;6.60;;
703;SDS011;335;48.694;9.120;2022-09-12T07:50:19;7.10;;;6.50;;
703;SDS011;335;48.694;9.120;2022-09-12T07:52:46;6.67;;;6.20;;
703;SDS011;335;48.694;9.120;2022-09-12T07:55:11;7.60;;;6.77;;
703;SDS011;335;48.694;9.120;2022-09-12T07:57:37;6.63;;;6.10;;
703;SDS011;335;48.694;9.120;2022-09-12T08:00:03;6.27;;;5.87;;
703;SDS011;335;48.694;9.120;2022-09-12T08:02:29;6.50;;;6.00;;
703;SDS011;335;48.694;9.120;2022-09-12T08:04:55;5.13;;;4.70;;
703;SDS011;335;48.694;9.120;2022-09-12T08:07:20;5.00;;;4.73;;
703;SDS011;335;48.694;9.120;2022-09-12T08:09:46;5.23;;;4.90;;
703;SDS011;335;48.694;9.120;2022-09-12T08:12:11;4.70;;;4.40;;
703;SDS011;335;48.694;9.120;2022-09-12T08:14:37;3.77;;;3.57;;
703;SDS011;335;48.694;9.120;2022-09-12T08:17:02;2.60;;;2.40;;
703;SDS011;335;48.694;9.120;2022-09-12T08:19:27;2.90;;;2.70;;
703;SDS011;335;48.694;9.120;2022-09-12T08:21:53;2.63;;;2.53;;
703;SDS011;335;48.694;9.120;2022-09-12T08:24:18;2.20;;;1.80;;
703;SDS011;335;48.694;9.120;2022-09-12T08:26:43;2.40;;;2.30;;
703;SDS011;335;48.694;9.120;2022-09-12T08:29:09;2.50;;;2.40;;
703;SDS011;335;48.694;9.120;2022-09-12T08:31:34;2.30;;;2.20;;
703;SDS011;335;48.694;9.120;2022-09-12T08:34:00;1.90;;;1.80;;
703;SDS011;335;48.694;9.120;2022-09-12T08:36:26;1.83;;;1.73;;
703;SDS011;335;48.694;9.120;2022-09-12T08:38:54;1.80;;;1.70;;
703;SDS011;335;48.694;9.120;2022-09-12T08:41:25;1.67;;;1.57;;
703;SDS011;335;48.694;9.120;2022-09-12T08:47:37;1.50;;;1.50;;
703;SDS011;335;48.694;9.120;2022-09-12T08:54:57;1.43;;;1.20;;
703;SDS011;335;48.694;9.120;2022-09-12T08:57:22;2.07;;;1.20;;
703;SDS011;335;48.694;9.120;2022-09-12T08:59:48;1.30;;;1.20;;
703;SDS011;335;48.694;9.120;2022-09-12T09:05:01;1.47;;;1.13;;
703;SDS011;335;48.694;9.120;2022-09-12T09:07:45;1.00;;;1.00;;
703;SDS011;335;48.694;9.120;2022-09-12T09:11:06;1.13;;;1.03;;
703;SDS011;335;48.694;9.120;2022-09-12T09:13:32;1.10;;;1.10;;
703;SDS011;335;48.694;9.120;2022-09-12T09:16:24;1.20;;;1.10;;
703;SDS011;335;48.694;9.120;2022-09-12T09:18:51;1.13;;;1.07;;
703;SDS011;335;48.694;9.120;2022-09-12T09:21:22;2.40;;;1.07;;
703;SDS011;335;48.694;9.120;2022-09-12T09:23:56;1.50;;;1.50;;
703;SDS011;335;48.694;9.120;2022-09-12T09:26:31;0.80;;;0.80;;
703;SDS011;335;48.694;9.120;2022-09-12T09:29:05;0.90;;;0.90;;
703;SDS011;335;48.694;9.120;2022-09-12T09:31:41;1.47;;;1.23;;
703;SDS011;335;48.694;9.120;2022-09-12T09:34:12;1.10;;;1.10;;
703;SDS011;335;48.694;9.120;2022-09-12T09:36:48;1.27;;;1.17;;
703;SDS011;335;48.694;9.120;2022-09-12T09:42:31;1.53;;;1.20;;
703;SDS011;335;48.694;9.120;2022-09-12T09:45:15;1.20;;;1.20;;
703;SDS011;335;48.694;9.120;2022-09-12T09:47:47;1.33;;;1.23;;
703;SDS011;335;48.694;9.120;2022-09-12T09:50:23;1.07;;;1.07;;
703;SDS011;335;48.694;9.120;2022-09-12T09:52:49;1.10;;;1.10;;
703;SDS011;335;48.694;9.120;2022-09-12T09:55:17;1.17;;;1.17;;
703;SDS011;335;48.694;9.120;2022-09-12T09:57:46;0.77;;;0.77;;
703;SDS011;335;48.694;9.120;2022-09-12T10:00:30;1.10;;;1.00;;
703;SDS011;335;48.694;9.120;2022-09-12T10:05:26;0.80;;;0.80;;
703;SDS011;335;48.694;9.120;2022-09-12T10:07:52;1.13;;;1.13;;
703;SDS011;335;48.694;9.120;2022-09-12T10:10:18;1.23;;;1.20;;
703;SDS011;335;48.694;9.120;2022-09-12T10:12:46;0.90;;;0.90;;
703;SDS011;335;48.694;9.120;2022-09-12T10:17:45;1.20;;;1.10;;
703;SDS011;335;48.694;9.120;2022-09-12T10:23:46;0.80;;;0.80;;
703;SDS011;335;48.694;9.120;2022-09-12T10:26:02;0.90;;;0.90;;
703;SDS011;335;48.694;9.120;2022-09-12T10:31:09;1.17;;;0.80;;
703;SDS011;335;48.694;9.120;2022-09-12T10:33:47;0.90;;;0.73;;
703;SDS011;335;48.694;9.120;2022-09-12T10:36:17;0.80;;;0.80;;
703;SDS011;335;48.694;9.120;2022-09-12T10:38:47;0.90;;;0.60;;
703;SDS011;335;48.694;9.120;2022-09-12T10:41:14;0.80;;;0.80;;
703;SDS011;335;48.694;9.120;2022-09-12T10:43:39;0.80;;;0.80;;
703;SDS011;335;48.694;9.120;2022-09-12T10:48:47;0.80;;;0.80;;
703;SDS011;335;48.694;9.120;2022-09-12T10:53:48;1.17;;;1.07;;
703;SDS011;335;48.694;9.120;2022-09-12T10:56:19;0.93;;;0.80;;
703;SDS011;335;48.694;9.120;2022-09-12T11:01:43;2.77;;;0.87;;
703;SDS011;335;48.694;9.120;2022-09-12T11:04:25;0.70;;;0.70;;
703;SDS011;335;48.694;9.120;2022-09-12T11:07:15;1.10;;;1.00;;
703;SDS011;335;48.694;9.120;2022-09-12T11:09:56;1.00;;;1.00;;
703;SDS011;335;48.694;9.120;2022-09-12T11:15:06;0.70;;;0.70;;
703;SDS011;335;48.694;9.120;2022-09-12T11:26:09;0.93;;;0.93;;
703;SDS011;335;48.694;9.120;2022-09-12T11:37:13;0.60;;;0.60;;
703;SDS011;335;48.694;9.120;2022-09-12T11:40:15;0.80;;;0.80;;
703;SDS011;335;48.694;9.120;2022-09-12T11:42:54;0.87;;;0.87;;
703;SDS011;335;48.694;9.120;2022-09-12T11:48:28;2.37;;;0.80;;
703;SDS011;335;48.694;9.120;2022-09-12T11:50:59;1.47;;;1.17;;
703;SDS011;335;48.694;9.120;2022-09-12T11:53:28;0.70;;;0.70;;
703;SDS011;335;48.694;9.120;2022-09-12T11:55:59;0.63;;;0.63;;
703;SDS011;335;48.694;9.120;2022-09-12T11:58:29;1.03;;;0.60;;
703;SDS011;335;48.694;9.120;2022-09-12T12:00:55;0.60;;;0.50;;
703;SDS011;335;48.694;9.120;2022-09-12T12:03:36;0.60;;;0.50;;
703;SDS011;335;48.694;9.120;2022-09-12T12:06:19;0.80;;;0.80;;
703;SDS011;335;48.694;9.120;2022-09-12T12:08:46;0.70;;;0.60;;
703;SDS011;335;48.694;9.120;2022-09-12T12:11:13;0.60;;;0.50;;
703;SDS011;335;48.694;9.120;2022-09-12T12:13:44;0.97;;;0.80;;
703;SDS011;335;48.694;9.120;2022-09-12T12:16:14;0.77;;;0.60;;
703;SDS011;335;48.694;9.120;2022-09-12T12:18:45;0.60;;;0.60;;
703;SDS011;335;48.694;9.120;2022-09-12T12:29:07;0.60;;;0.53;;
703;SDS011;335;48.694;9.120;2022-09-12T12:34:28;0.70;;;0.50;;
703;SDS011;335;48.694;9.120;2022-09-12T12:36:58;0.60;;;0.50;;
703;SDS011;335;48.694;9.120;2022-09-12T12:41:57;1.27;;;0.50;;
703;SDS011;335;48.694;9.120;2022-09-12T12:47:15;1.40;;;0.80;;
703;SDS011;335;48.694;9.120;2022-09-12T12:49:48;0.70;;;0.70;;
703;SDS011;335;48.694;9.120;2022-09-12T12:52:17;1.07;;;0.50;;
703;SDS011;335;48.694;9.120;2022-09-12T12:59:42;0.87;;;0.87;;
703;SDS011;335;48.694;9.120;2022-09-12T13:02:16;0.80;;;0.80;;
703;SDS011;335;48.694;9.120;2022-09-12T13:04:54;0.60;;;0.57;;
703;SDS011;335;48.694;9.120;2022-09-12T13:07:22;1.57;;;0.67;;
703;SDS011;335;48.694;9.120;2022-09-12T13:09:50;0.70;;;0.60;;
703;SDS011;335;48.694;9.120;2022-09-12T13:12:24;0.80;;;0.70;;
703;SDS011;335;48.694;9.120;2022-09-12T13:14:55;0.73;;;0.70;;
703;SDS011;335;48.694;9.120;2022-09-12T13:17:33;0.83;;;0.80;;
703;SDS011;335;48.694;9.120;2022-09-12T13:20:06;0.80;;;0.70;;
703;SDS011;335;48.694;9.120;2022-09-12T13:22:49;0.67;;;0.60;;
703;SDS011;335;48.694;9.120;2022-09-12T13:25:19;0.60;;;0.50;;
703;SDS011;335;48.694;9.120;2022-09-12T13:27:55;0.70;;;0.53;;
703;SDS011;335;48.694;9.120;2022-09-12T13:30:33;2.50;;;0.57;;
703;SDS011;335;48.694;9.120;2022-09-12T13:44:24;0.60;;;0.50;;
703;SDS011;335;48.694;9.120;2022-09-12T13:46:51;0.60;;;0.50;;
703;SDS011;335;48.694;9.120;2022-09-12T13:49:31;1.17;;;0.50;;
703;SDS011;335;48.694;9.120;2022-09-12T13:52:03;1.03;;;0.80;;
703;SDS011;335;48.694;9.120;2022-09-12T13:54:30;0.90;;;0.70;;
703;SDS011;335;48.694;9.120;2022-09-12T13:56:57;0.90;;;0.90;;
703;SDS011;335;48.694;9.120;2022-09-12T13:59:23;0.80;;;0.80;;
703;SDS011;335;48.694;9.120;2022-09-12T14:01:49;0.87;;;0.73;;
703;SDS011;335;48.694;9.120;2022-09-12T14:04:15;0.80;;;0.80;;
703;SDS011;335;48.694;9.120;2022-09-12T14:07:14;0.67;;;0.67;;
703;SDS011;335;48.694;9.120;2022-09-12T14:09:44;1.30;;;0.80;;
703;SDS011;335;48.694;9.120;2022-09-12T14:14:59;0.90;;;0.83;;
703;SDS011;335;48.694;9.120;2022-09-12T14:17:31;0.80;;;0.80;;
703;SDS011;335;48.694;9.120;2022-09-12T14:20:21;1.13;;;1.10;;
703;SDS011;335;48.694;9.120;2022-09-12T14:22:47;1.30;;;0.60;;
703;SDS011;335;48.694;9.120;2022-09-12T14:25:17;1.40;;;1.30;;
703;SDS011;335;48.694;9.120;2022-09-12T14:27:55;1.70;;;0.80;;
703;SDS011;335;48.694;9.120;2022-09-12T14:30:28;1.30;;;1.30;;
703;SDS011;335;48.694;9.120;2022-09-12T14:35:43;2.47;;;2.37;;
703;SDS011;335;48.694;9.120;2022-09-12T14:38:24;2.07;;;1.30;;
703;SDS011;335;48.694;9.120;2022-09-12T14:41:00;0.80;;;0.80;;
703;SDS011;335;48.694;9.120;2022-09-12T14:43:29;0.90;;;0.90;;
703;SDS011;335;48.694;9.120;2022-09-12T14:45:57;1.10;;;1.00;;
703;SDS011;335;48.694;9.120;2022-09-12T14:48:25;1.00;;;1.00;;
703;SDS011;335;48.694;9.120;2022-09-12T14:50:52;0.90;;;0.90;;
703;SDS011;335;48.694;9.120;2022-09-12T14:53:52;1.13;;;1.13;;
703;SDS011;335;48.694;9.120;2022-09-12T14:56:11;1.60;;;1.50;;
703;SDS011;335;48.694;9.120;2022-09-12T14:58:38;1.00;;;1.00;;
703;SDS011;335;48.694;9.120;2022-09-12T15:03:33;1.37;;;1.37;;
703;SDS011;335;48.694;9.120;2022-09-12T15:08:58;1.30;;;1.20;;
703;SDS011;335;48.694;9.120;2022-09-12T15:11:26;1.67;;;1.47;;
703;SDS011;335;48.694;9.120;2022-09-12T15:13:51;1.60;;;1.50;;
703;SDS011;335;48.694;9.120;2022-09-12T15:16:17;1.90;;;1.80;;
703;SDS011;335;48.694;9.120;2022-09-12T15:18:42;3.13;;;2.83;;
703;SDS011;335;48.694;9.120;2022-09-12T15:21:10;2.47;;;2.27;;
703;SDS011;335;48.694;9.120;2022-09-12T15:23:50;1.33;;;1.33;;
703;SDS011;335;48.694;9.120;2022-09-12T15:26:17;1.60;;;1.50;;
703;SDS011;335;48.694;9.120;2022-09-12T15:28:47;1.40;;;1.27;;
703;SDS011;335;48.694;9.120;2022-09-12T15:31:23;1.10;;;1.10;;
703;SDS011;335;48.694;9.120;2022-09-12T15:33:56;5.53;;;5.23;;
703;SDS011;335;48.694;9.120;2022-09-12T15:36:23;1.80;;;1.70;;
703;SDS011;335;48.694;9.120;2022-09-12T15:38:49;1.70;;;1.60;;
703;SDS011;335;48.694;9.120;2022-09-12T15:41:19;1.57;;;1.43;;
703;SDS011;335;48.694;9.120;2022-09-12T15:43:46;1.80;;;1.70;;
703;SDS011;335;48.694;9.120;2022-09-12T15:46:12;1.50;;;1.20;;
703;SDS011;335;48.694;9.120;2022-09-12T15:48:38;2.00;;;1.90;;
703;SDS011;335;48.694;9.120;2022-09-12T15:51:05;1.73;;;1.63;;
703;SDS011;335;48.694;9.120;2022-09-12T15:53:50;1.60;;;1.50;;
703;SDS011;335;48.694;9.120;2022-09-12T15:56:17;1.83;;;1.73;;
703;SDS011;335;48.694;9.120;2022-09-12T15:58:44;2.10;;;1.93;;
703;SDS011;335;48.694;9.120;2022-09-12T16:01:16;1.87;;;1.30;;
703;SDS011;335;48.694;9.120;2022-09-12T16:03:43;1.40;;;1.30;;
703;SDS011;335;48.694;9.120;2022-09-12T16:06:10;1.33;;;1.10;;
703;SDS011;335;48.694;9.120;2022-09-12T16:08:35;1.30;;;1.30;;
703;SDS011;335;48.694;9.120;2022-09-12T16:11:02;1.30;;;1.30;;
703;SDS011;335;48.694;9.120;2022-09-12T16:13:28;1.17;;;1.07;;
703;SDS011;335;48.694;9.120;2022-09-12T16:15:57;1.13;;;1.13;;
703;SDS011;335;48.694;9.120;2022-09-12T16:18:23;1.30;;;1.20;;
703;SDS011;335;48.694;9.120;2022-09-12T16:20:52;1.40;;;1.30;;
703;SDS011;335;48.694;9.120;2022-09-12T16:23:18;1.50;;;1.40;;
703;SDS011;335;48.694;9.120;2022-09-12T16:25:43;1.87;;;1.37;;
703;SDS011;335;48.694;9.120;2022-09-12T16:28:09;3.80;;;1.70;;
703;SDS011;335;48.694;9.120;2022-09-12T16:30:34;1.03;;;1.03;;
703;SDS011;335;48.694;9.120;2022-09-12T16:33:00;1.30;;;1.27;;
703;SDS011;335;48.694;9.120;2022-09-12T16:35:25;1.63;;;1.00;;
703;SDS011;335;48.694;9.120;2022-09-12T16:37:51;1.40;;;1.40;;
703;SDS011;335;48.694;9.120;2022-09-12T16:40:16;1.63;;;1.30;;
703;SDS011;335;48.694;9.120;2022-09-12T16:42:43;2.63;;;1.70;;
703;SDS011;335;48.694;9.120;2022-09-12T16:45:09;1.50;;;1.50;;
703;SDS011;335;48.694;9.120;2022-09-12T16:47:35;1.77;;;1.70;;
703;SDS011;335;48.694;9.120;2022-09-12T16:50:00;1.70;;;1.60;;
703;SDS011;335;48.694;9.120;2022-09-12T16:52:25;1.30;;;1.30;;
703;SDS011;335;48.694;9.120;2022-09-12T16:54:51;1.60;;;1.60;;
703;SDS011;335;48.694;9.120;2022-09-12T16:57:17;1.53;;;1.53;;
703;SDS011;335;48.694;9.120;2022-09-12T16:59:42;1.53;;;1.43;;
703;SDS011;335;48.694;9.120;2022-09-12T17:02:11;1.77;;;1.67;;
703;SDS011;335;48.694;9.120;2022-09-12T17:04:37;2.40;;;2.30;;
703;SDS011;335;48.694;9.120;2022-09-12T17:07:02;3.17;;;2.97;;
703;SDS011;335;48.694;9.120;2022-09-12T17:09:28;2.50;;;2.30;;
703;SDS011;335;48.694;9.120;2022-09-12T17:11:53;2.90;;;2.70;;
703;SDS011;335;48.694;9.120;2022-09-12T17:14:19;3.30;;;3.00;;
703;SDS011;335;48.694;9.120;2022-09-12T17:16:45;3.40;;;3.10;;
703;SDS011;335;48.694;9.120;2022-09-12T17:19:18;4.20;;;3.90;;
703;SDS011;335;48.694;9.120;2022-09-12T17:21:50;3.93;;;3.63;;
703;SDS011;335;48.694;9.120;2022-09-12T17:24:16;4.20;;;3.80;;
703;SDS011;335;48.694;9.120;2022-09-12T17:26:41;4.80;;;4.30;;
703;SDS011;335;48.694;9.120;2022-09-12T17:29:07;5.40;;;4.73;;
703;SDS011;335;48.694;9.120;2022-09-12T17:31:32;5.60;;;5.10;;
703;SDS011;335;48.694;9.120;2022-09-12T17:33:58;7.57;;;6.57;;
703;SDS011;335;48.694;9.120;2022-09-12T17:36:25;6.97;;;6.27;;
703;SDS011;335;48.694;9.120;2022-09-12T17:38:50;6.60;;;6.00;;
703;SDS011;335;48.694;9.120;2022-09-12T17:41:17;4.93;;;4.53;;
703;SDS011;335;48.694;9.120;2022-09-12T17:43:45;4.80;;;4.40;;
703;SDS011;335;48.694;9.120;2022-09-12T17:46:12;4.23;;;3.93;;
703;SDS011;335;48.694;9.120;2022-09-12T17:48:38;3.73;;;3.43;;
703;SDS011;335;48.694;9.120;2022-09-12T17:51:07;3.40;;;2.90;;
703;SDS011;335;48.694;9.120;2022-09-12T17:53:33;2.40;;;2.20;;
703;SDS011;335;48.694;9.120;2022-09-12T17:56:02;2.50;;;2.30;;
703;SDS011;335;48.694;9.120;2022-09-12T17:58:28;2.10;;;2.00;;
703;SDS011;335;48.694;9.120;2022-09-12T18:01:11;2.00;;;1.90;;
703;SDS011;335;48.694;9.120;2022-09-12T18:03:56;2.03;;;1.93;;
703;SDS011;335;48.694;9.120;2022-09-12T18:06:24;2.47;;;2.37;;
703;SDS011;335;48.694;9.120;2022-09-12T18:08:50;2.20;;;2.00;;
703;SDS011;335;48.694;9.120;2022-09-12T18:11:15;2.27;;;2.17;;